Time;durP1;ratioP1;P1;durP2;ratioP2;P2;SDS_P1;SDS_P2;PMS_P1;PMS_P2;Temp;Humidity;BMP_temperature;BMP_pressure;BME280_temperature;BME280_humidity;BME280_pressure;Samples;Min_cycle;Max_cycle;Signal;HPM_P1;HPM_P2
2022/10/29 00:00:36;;;;;;;28.58;13.93;;;;;;;;;;4998972;28;20081;-48
2022/10/29 00:03:02;;;;;;;31.13;13.10;;;;;;;;;;4995018;28;20042;-46
2022/10/29 00:05:27;;;;;;;35.90;13.00;;;;;;;;;;4998025;28;20025;-51
2022/10/29 00:07:52;;;;;;;29.63;12.65;;;;;;;;;;4996451;28;20070;-48
2022/10/29 00:10:18;;;;;;;23.23;12.23;;;;;;;;;;4995770;28;20410;-47
2022/10/29 00:12:43;;;;;;;38.72;13.27;;;;;;;;;;4992529;28;20037;-48
2022/10/29 00:15:09;;;;;;;31.65;12.98;;;;;;;;;;4997276;28;20471;-46
2022/10/29 00:17:34;;;;;;;27.77;12.57;;;;;;;;;;4996244;28;20514;-49
2022/10/29 00:20:00;;;;;;;35.38;14.55;;;;;;;;;;4995944;28;20521;-48
2022/10/29 00:22:25;;;;;;;30.40;13.82;;;;;;;;;;4993372;28;20033;-50
2022/10/29 00:24:50;;;;;;;27.38;13.48;;;;;;;;;;4996509;28;20030;-50
2022/10/29 00:27:16;;;;;;;24.50;13.77;;;;;;;;;;4996967;28;20507;-48
2022/10/29 00:29:41;;;;;;;31.50;13.52;;;;;;;;;;4991708;28;20106;-48
2022/10/29 00:32:08;;;;;;;29.95;14.80;;;;;;;;;;4997133;28;20049;-48
2022/10/29 00:34:34;;;;;;;28.90;14.25;;;;;;;;;;4996016;28;20498;-50
2022/10/29 00:36:59;;;;;;;28.08;13.95;;;;;;;;;;4995546;28;20076;-51
2022/10/29 00:39:25;;;;;;;28.60;14.07;;;;;;;;;;4993977;28;20080;-52
2022/10/29 00:41:51;;;;;;;32.17;14.15;;;;;;;;;;5001418;28;20072;-48
2022/10/29 00:44:19;;;;;;;29.55;15.18;;;;;;;;;;4991915;28;20026;-46
2022/10/29 00:46:59;;;;;;;30.45;14.35;;;;;;;;;;4992109;28;20045;-47
2022/10/29 00:49:26;;;;;;;31.85;14.65;;;;;;;;;;4995953;28;20427;-49
2022/10/29 00:51:52;;;;;;;32.33;13.85;;;;;;;;;;4996639;28;20069;-50
2022/10/29 00:54:17;;;;;;;28.50;13.52;;;;;;;;;;4994356;28;20470;-46
2022/10/29 00:56:58;;;;;;;28.15;13.60;;;;;;;;;;5002091;28;20037;-47
2022/10/29 00:59:24;;;;;;;28.83;13.98;;;;;;;;;;4997684;28;20076;-49
2022/10/29 01:01:49;;;;;;;29.77;14.32;;;;;;;;;;4997442;28;20041;-48
2022/10/29 01:04:16;;;;;;;27.50;13.32;;;;;;;;;;4997304;28;20030;-49
2022/10/29 01:06:42;;;;;;;29.58;13.68;;;;;;;;;;4999227;28;20390;-49
2022/10/29 01:09:08;;;;;;;26.92;14.25;;;;;;;;;;4996614;28;20099;-49
2022/10/29 01:12:03;;;;;;;27.70;13.60;;;;;;;;;;4992920;28;20038;-46
2022/10/29 01:14:59;;;;;;;29.13;12.88;;;;;;;;;;4994777;28;20125;-47
2022/10/29 01:17:33;;;;;;;28.25;13.40;;;;;;;;;;4993573;28;20038;-48
2022/10/29 01:20:23;;;;;;;21.80;12.60;;;;;;;;;;4996070;28;20445;-47
2022/10/29 01:23:22;;;;;;;30.27;13.82;;;;;;;;;;4987471;28;20046;-49
2022/10/29 01:26:25;;;;;;;31.85;12.88;;;;;;;;;;4994120;28;20045;-52
2022/10/29 01:28:53;;;;;;;28.83;13.70;;;;;;;;;;4995159;28;20142;-50
2022/10/29 01:31:47;;;;;;;26.25;12.13;;;;;;;;;;4995063;28;20157;-48
2022/10/29 01:34:30;;;;;;;29.50;12.48;;;;;;;;;;4990327;28;20474;-53
2022/10/29 01:37:09;;;;;;;;;;;;;;;;;;4993735;28;20092;-50
2022/10/29 01:39:43;;;;;;;36.42;12.32;;;;;;;;;;4993704;28;19969;-51
2022/10/29 01:42:23;;;;;;;28.13;11.77;;;;;;;;;;4995464;28;20042;-49
2022/10/29 01:44:55;;;;;;;23.30;11.55;;;;;;;;;;4991999;28;20026;-49
2022/10/29 01:47:23;;;;;;;27.48;11.82;;;;;;;;;;4989970;28;20391;-53
2022/10/29 01:50:11;;;;;;;35.67;12.32;;;;;;;;;;4992476;28;20030;-48
2022/10/29 01:52:38;;;;;;;23.75;12.30;;;;;;;;;;4991732;28;20415;-53
2022/10/29 01:55:04;;;;;;;32.08;11.48;;;;;;;;;;4998160;28;20026;-50
2022/10/29 01:57:32;;;;;;;26.33;12.35;;;;;;;;;;4992172;28;20047;-51
2022/10/29 02:00:01;;;;;;;29.25;12.25;;;;;;;;;;4997400;28;20108;-49
2022/10/29 02:03:02;;;;;;;23.88;11.50;;;;;;;;;;4991996;28;20406;-49
2022/10/29 02:05:27;;;;;;;35.55;12.88;;;;;;;;;;4995405;28;20034;-52
2022/10/29 02:08:12;;;;;;;24.65;11.95;;;;;;;;;;4995754;28;20060;-46
2022/10/29 02:10:49;;;;;;;25.13;12.60;;;;;;;;;;4995507;28;20068;-52
2022/10/29 02:13:18;;;;;;;29.63;12.20;;;;;;;;;;4993499;28;20686;-53
2022/10/29 02:15:51;;;;;;;22.40;11.45;;;;;;;;;;4998732;28;20030;-51
2022/10/29 02:18:17;;;;;;;19.40;11.48;;;;;;;;;;4989816;28;20410;-52
2022/10/29 02:20:44;;;;;;;29.08;11.23;;;;;;;;;;4996607;28;20121;-51
2022/10/29 02:23:10;;;;;;;31.55;10.45;;;;;;;;;;4991780;28;20073;-47
2022/10/29 02:25:35;;;;;;;29.08;10.75;;;;;;;;;;4990822;28;20070;-49
2022/10/29 02:28:01;;;;;;;24.25;10.15;;;;;;;;;;4991102;28;20053;-51
2022/10/29 02:30:26;;;;;;;25.88;10.32;;;;;;;;;;4996430;28;20047;-51
2022/10/29 02:32:52;;;;;;;22.73;10.60;;;;;;;;;;4996009;28;20387;-49
2022/10/29 02:35:17;;;;;;;24.02;10.23;;;;;;;;;;4994595;28;20034;-49
2022/10/29 02:37:42;;;;;;;27.52;9.60;;;;;;;;;;4995324;28;20057;-50
2022/10/29 02:40:08;;;;;;;25.90;10.15;;;;;;;;;;5004163;28;20045;-46
2022/10/29 02:42:34;;;;;;;18.88;9.65;;;;;;;;;;4999265;28;20049;-48
2022/10/29 02:44:59;;;;;;;28.38;10.32;;;;;;;;;;4996522;28;20026;-49
2022/10/29 02:47:24;;;;;;;24.17;9.93;;;;;;;;;;4996017;28;20494;-50
2022/10/29 02:49:50;;;;;;;20.80;9.75;;;;;;;;;;5000533;28;20030;-47
2022/10/29 02:52:15;;;;;;;28.02;10.52;;;;;;;;;;4994354;28;20038;-49
2022/10/29 02:54:41;;;;;;;23.42;10.23;;;;;;;;;;4997568;28;20030;-47
2022/10/29 02:57:07;;;;;;;25.15;10.48;;;;;;;;;;4998843;28;20120;-48
2022/10/29 02:59:32;;;;;;;24.02;10.75;;;;;;;;;;4996658;28;20141;-51
2022/10/29 03:01:58;;;;;;;23.80;9.52;;;;;;;;;;4991525;28;20060;-48
2022/10/29 03:04:23;;;;;;;29.13;9.98;;;;;;;;;;4994357;28;20068;-46
2022/10/29 03:06:48;;;;;;;22.10;9.80;;;;;;;;;;4996531;28;20100;-49
2022/10/29 03:09:14;;;;;;;24.35;9.75;;;;;;;;;;4995370;28;20116;-46
2022/10/29 03:11:39;;;;;;;20.17;9.52;;;;;;;;;;4999164;28;20034;-51
2022/10/29 03:14:05;;;;;;;28.42;10.30;;;;;;;;;;4990134;28;20034;-48
2022/10/29 03:16:30;;;;;;;17.73;9.27;;;;;;;;;;4993979;28;20026;-47
2022/10/29 03:18:55;;;;;;;26.42;9.93;;;;;;;;;;4994489;28;20371;-49
2022/10/29 03:21:21;;;;;;;22.70;9.82;;;;;;;;;;4994831;28;20109;-45
2022/10/29 03:23:46;;;;;;;22.08;9.27;;;;;;;;;;4996921;28;20037;-49
2022/10/29 03:26:11;;;;;;;23.17;9.85;;;;;;;;;;4992921;28;20408;-51
2022/10/29 03:28:37;;;;;;;25.02;9.43;;;;;;;;;;4991796;28;20162;-52
2022/10/29 03:31:02;;;;;;;24.50;10.13;;;;;;;;;;4996855;28;20029;-47
2022/10/29 03:33:27;;;;;;;18.98;9.75;;;;;;;;;;4996375;28;20061;-52
2022/10/29 03:35:57;;;;;;;29.98;10.65;;;;;;;;;;4993959;28;20837;-50
2022/10/29 03:38:23;;;;;;;22.05;9.88;;;;;;;;;;4988718;28;20624;-51
2022/10/29 03:40:48;;;;;;;23.85;10.63;;;;;;;;;;4995755;28;20023;-52
2022/10/29 03:43:14;;;;;;;24.95;10.43;;;;;;;;;;4999113;28;20034;-51
2022/10/29 03:45:39;;;;;;;21.00;9.90;;;;;;;;;;4992675;28;20014;-51
2022/10/29 03:48:05;;;;;;;22.73;9.95;;;;;;;;;;4994493;28;20133;-48
2022/10/29 03:50:30;;;;;;;24.60;10.55;;;;;;;;;;4998272;28;20038;-48
2022/10/29 03:52:55;;;;;;;26.27;11.23;;;;;;;;;;4989185;28;20611;-49
2022/10/29 03:55:21;;;;;;;19.88;9.93;;;;;;;;;;4994940;28;20032;-51
2022/10/29 03:57:46;;;;;;;24.92;9.88;;;;;;;;;;4993497;28;20045;-48
2022/10/29 04:00:12;;;;;;;20.40;9.35;;;;;;;;;;5000105;28;20037;-51
2022/10/29 04:02:37;;;;;;;31.70;9.77;;;;;;;;;;4994970;28;20042;-48
2022/10/29 04:05:03;;;;;;;20.45;9.43;;;;;;;;;;4995638;28;20022;-47
2022/10/29 04:07:28;;;;;;;14.07;8.95;;;;;;;;;;4997708;28;20042;-50
2022/10/29 04:09:53;;;;;;;24.42;9.25;;;;;;;;;;4995939;28;20027;-48
2022/10/29 04:12:19;;;;;;;18.50;9.38;;;;;;;;;;4996599;28;20038;-50
2022/10/29 04:14:44;;;;;;;21.98;8.30;;;;;;;;;;4996300;28;20036;-48
2022/10/29 04:17:11;;;;;;;19.63;9.70;;;;;;;;;;4996412;28;20456;-51
2022/10/29 04:19:36;;;;;;;20.98;8.88;;;;;;;;;;4997496;28;20081;-50
2022/10/29 04:22:02;;;;;;;18.60;9.48;;;;;;;;;;4989096;28;20042;-51
2022/10/29 04:24:27;;;;;;;16.38;8.70;;;;;;;;;;4992950;28;20116;-52
2022/10/29 04:26:52;;;;;;;16.05;9.52;;;;;;;;;;4992414;28;20034;-50
2022/10/29 04:29:18;;;;;;;21.85;8.98;;;;;;;;;;4995989;28;20037;-49
2022/10/29 04:31:43;;;;;;;21.58;9.40;;;;;;;;;;4992607;28;20453;-47
2022/10/29 04:34:08;;;;;;;22.90;8.88;;;;;;;;;;4993571;28;20033;-51
2022/10/29 04:36:34;;;;;;;25.27;10.48;;;;;;;;;;4989586;28;20033;-52
2022/10/29 04:38:59;;;;;;;26.20;9.23;;;;;;;;;;4994640;28;20026;-50
2022/10/29 04:41:24;;;;;;;29.80;10.07;;;;;;;;;;4995837;28;20430;-48
2022/10/29 04:43:50;;;;;;;20.08;9.30;;;;;;;;;;4998018;28;20038;-51
2022/10/29 04:46:15;;;;;;;17.70;9.38;;;;;;;;;;4992872;28;20045;-50
2022/10/29 04:48:40;;;;;;;24.55;9.75;;;;;;;;;;4996133;28;20506;-48
2022/10/29 04:51:06;;;;;;;22.17;9.40;;;;;;;;;;4991693;28;20027;-51
2022/10/29 04:53:31;;;;;;;21.48;9.32;;;;;;;;;;4989040;28;20073;-49
2022/10/29 04:56:00;;;;;;;17.80;8.57;;;;;;;;;;4988836;28;20034;-51
2022/10/29 04:58:26;;;;;;;20.75;9.13;;;;;;;;;;4994841;28;20084;-51
2022/10/29 05:00:52;;;;;;;15.52;7.93;;;;;;;;;;4991432;28;20034;-49
2022/10/29 05:03:17;;;;;;;20.33;8.45;;;;;;;;;;4993257;28;20075;-51
2022/10/29 05:05:42;;;;;;;25.42;8.25;;;;;;;;;;4996238;28;20033;-52
2022/10/29 05:08:09;;;;;;;19.70;8.05;;;;;;;;;;4992527;28;20514;-49
2022/10/29 05:10:36;;;;;;;28.35;8.38;;;;;;;;;;4992791;28;20045;-50
2022/10/29 05:13:06;;;;;;;17.73;8.25;;;;;;;;;;4991704;28;20031;-46
2022/10/29 05:15:31;;;;;;;22.58;8.65;;;;;;;;;;4992777;28;20038;-47
2022/10/29 05:17:57;;;;;;;20.55;7.35;;;;;;;;;;4992829;28;20046;-49
2022/10/29 05:20:23;;;;;;;21.80;7.60;;;;;;;;;;4991907;28;20621;-47
2022/10/29 05:22:48;;;;;;;14.82;7.40;;;;;;;;;;4990554;28;20070;-52
2022/10/29 05:25:14;;;;;;;19.00;7.47;;;;;;;;;;4992142;28;20122;-50
2022/10/29 05:27:40;;;;;;;17.42;7.22;;;;;;;;;;4993735;28;20037;-49
2022/10/29 05:30:06;;;;;;;13.82;8.30;;;;;;;;;;4996449;28;20467;-47
2022/10/29 05:32:31;;;;;;;28.40;8.50;;;;;;;;;;4990639;28;20042;-46
2022/10/29 05:34:57;;;;;;;12.27;7.10;;;;;;;;;;4993970;28;20025;-51
2022/10/29 05:37:26;;;;;;;22.00;7.65;;;;;;;;;;4991521;28;20046;-48
2022/10/29 05:39:52;;;;;;;15.85;7.03;;;;;;;;;;4994115;28;20065;-51
2022/10/29 05:42:17;;;;;;;25.33;7.07;;;;;;;;;;4992259;28;20042;-47
2022/10/29 05:44:43;;;;;;;19.15;7.55;;;;;;;;;;4994166;28;20478;-49
2022/10/29 05:47:08;;;;;;;17.48;7.20;;;;;;;;;;4990211;28;20125;-47
2022/10/29 05:49:33;;;;;;;20.17;7.82;;;;;;;;;;4989431;28;20037;-47
2022/10/29 05:51:59;;;;;;;20.35;8.57;;;;;;;;;;4987077;28;20038;-48
2022/10/29 05:54:24;;;;;;;18.67;8.55;;;;;;;;;;4992799;28;20030;-46
2022/10/29 05:56:50;;;;;;;26.42;8.48;;;;;;;;;;4993068;28;21031;-46
2022/10/29 05:59:15;;;;;;;15.57;8.65;;;;;;;;;;4996229;28;20064;-49
2022/10/29 06:01:40;;;;;;;25.30;9.18;;;;;;;;;;4992825;28;20047;-49
2022/10/29 06:04:06;;;;;;;19.48;8.27;;;;;;;;;;4994172;28;20498;-53
2022/10/29 06:06:31;;;;;;;20.13;9.10;;;;;;;;;;4988503;28;20101;-49
2022/10/29 06:08:56;;;;;;;23.58;8.65;;;;;;;;;;4997799;28;20463;-53
2022/10/29 06:11:22;;;;;;;18.30;8.18;;;;;;;;;;4995890;28;20386;-51
2022/10/29 06:13:47;;;;;;;18.02;8.00;;;;;;;;;;5000797;28;20048;-47
2022/10/29 06:16:12;;;;;;;19.52;8.00;;;;;;;;;;4993280;28;20505;-47
2022/10/29 06:18:38;;;;;;;16.02;6.97;;;;;;;;;;4995537;28;20788;-46
2022/10/29 06:21:03;;;;;;;13.65;7.28;;;;;;;;;;4997764;28;20115;-48
2022/10/29 06:23:29;;;;;;;20.60;8.20;;;;;;;;;;4995286;28;20045;-49
2022/10/29 06:25:57;;;;;;;20.63;7.78;;;;;;;;;;4998217;28;20029;-50
2022/10/29 06:28:22;;;;;;;14.45;7.45;;;;;;;;;;4995158;28;20408;-48
2022/10/29 06:30:49;;;;;;;16.38;7.65;;;;;;;;;;4994944;28;20026;-47
2022/10/29 06:33:16;;;;;;;22.75;8.68;;;;;;;;;;4996953;28;20046;-49
2022/10/29 06:35:41;;;;;;;15.52;8.05;;;;;;;;;;4994687;28;20038;-46
2022/10/29 06:38:07;;;;;;;27.17;8.38;;;;;;;;;;4992601;28;21354;-47
2022/10/29 06:40:32;;;;;;;25.17;7.82;;;;;;;;;;4993011;28;20109;-47
2022/10/29 06:43:03;;;;;;;17.17;7.88;;;;;;;;;;4999273;28;20461;-46
2022/10/29 06:45:29;;;;;;;15.82;7.22;;;;;;;;;;4995066;28;20026;-48
2022/10/29 06:47:55;;;;;;;18.73;7.38;;;;;;;;;;4996245;28;20060;-47
2022/10/29 06:50:20;;;;;;;18.45;7.13;;;;;;;;;;4997350;28;20034;-47
2022/10/29 06:53:01;;;;;;;25.13;7.78;;;;;;;;;;4997481;28;20101;-46
2022/10/29 06:55:28;;;;;;;13.45;7.63;;;;;;;;;;4995780;28;20034;-51
2022/10/29 06:58:04;;;;;;;15.55;7.30;;;;;;;;;;4994618;28;20485;-51
2022/10/29 07:00:31;;;;;;;22.95;6.85;;;;;;;;;;4990682;28;20068;-48
2022/10/29 07:02:57;;;;;;;17.80;7.40;;;;;;;;;;4993910;28;20041;-49
2022/10/29 07:05:23;;;;;;;15.77;7.45;;;;;;;;;;4992901;28;20026;-47
2022/10/29 07:07:48;;;;;;;15.50;6.90;;;;;;;;;;4996456;28;20049;-46
2022/10/29 07:10:14;;;;;;;20.05;6.72;;;;;;;;;;4993782;28;20037;-47
2022/10/29 07:12:41;;;;;;;20.67;7.85;;;;;;;;;;4993182;28;20042;-50
2022/10/29 07:15:07;;;;;;;15.40;7.30;;;;;;;;;;4995033;28;20030;-47
2022/10/29 07:17:33;;;;;;;14.75;7.15;;;;;;;;;;4993628;28;20054;-47
2022/10/29 07:19:58;;;;;;;21.73;7.68;;;;;;;;;;4992233;28;20042;-47
2022/10/29 07:22:24;;;;;;;23.60;7.97;;;;;;;;;;4992390;28;20070;-50
2022/10/29 07:24:49;;;;;;;24.85;7.68;;;;;;;;;;4990169;28;20081;-48
2022/10/29 07:27:14;;;;;;;18.75;6.50;;;;;;;;;;4997137;28;20042;-50
2022/10/29 07:29:40;;;;;;;17.90;6.40;;;;;;;;;;4996703;28;20022;-48
2022/10/29 07:32:05;;;;;;;21.05;7.28;;;;;;;;;;4996838;28;20041;-47
2022/10/29 07:34:30;;;;;;;15.00;6.43;;;;;;;;;;4990232;28;20030;-50
2022/10/29 07:36:56;;;;;;;19.75;6.57;;;;;;;;;;4992640;28;20573;-50
2022/10/29 07:39:21;;;;;;;14.90;7.00;;;;;;;;;;4995128;28;20111;-49
2022/10/29 07:41:47;;;;;;;14.55;6.30;;;;;;;;;;4996184;28;20046;-48
2022/10/29 07:44:12;;;;;;;18.02;6.70;;;;;;;;;;4999155;28;20026;-49
2022/10/29 07:46:37;;;;;;;22.25;7.47;;;;;;;;;;4989529;28;20467;-50
2022/10/29 07:49:03;;;;;;;21.80;6.35;;;;;;;;;;4991828;28;20038;-48
2022/10/29 07:51:28;;;;;;;17.05;6.38;;;;;;;;;;4995806;28;20038;-46
2022/10/29 07:53:54;;;;;;;16.20;6.85;;;;;;;;;;4988253;28;20031;-50
2022/10/29 07:56:19;;;;;;;22.80;6.72;;;;;;;;;;4995411;28;20028;-49
2022/10/29 07:58:44;;;;;;;13.95;6.10;;;;;;;;;;4988294;28;20038;-49
2022/10/29 08:01:10;;;;;;;23.70;7.07;;;;;;;;;;4994088;28;20026;-47
2022/10/29 08:03:35;;;;;;;16.08;6.88;;;;;;;;;;4989183;28;20037;-46
2022/10/29 08:06:01;;;;;;;17.48;6.60;;;;;;;;;;4993806;28;20117;-47
2022/10/29 08:08:26;;;;;;;12.20;6.35;;;;;;;;;;4992576;28;20406;-47
2022/10/29 08:10:51;;;;;;;19.27;7.32;;;;;;;;;;4992974;28;20031;-46
2022/10/29 08:13:17;;;;;;;23.73;7.00;;;;;;;;;;4998272;28;20042;-49
2022/10/29 08:15:45;;;;;;;19.67;6.40;;;;;;;;;;4993953;28;20114;-48
2022/10/29 08:18:14;;;;;;;12.77;6.50;;;;;;;;;;4987642;28;20054;-49
2022/10/29 08:20:40;;;;;;;16.88;6.63;;;;;;;;;;4994395;28;20046;-50
2022/10/29 08:23:06;;;;;;;15.65;6.15;;;;;;;;;;4992602;28;20042;-51
2022/10/29 08:25:31;;;;;;;17.02;6.80;;;;;;;;;;4991426;28;20030;-47
2022/10/29 08:28:01;;;;;;;14.48;6.07;;;;;;;;;;4991720;28;20038;-50
2022/10/29 08:30:27;;;;;;;16.20;6.30;;;;;;;;;;4983861;28;20036;-47
2022/10/29 08:32:53;;;;;;;16.10;6.63;;;;;;;;;;4997540;28;20034;-48
2022/10/29 08:35:18;;;;;;;19.05;6.18;;;;;;;;;;4995838;28;20493;-51
2022/10/29 08:37:44;;;;;;;19.13;6.65;;;;;;;;;;4989649;28;20038;-46
2022/10/29 08:40:36;;;;;;;20.88;7.07;;;;;;;;;;4991884;28;20069;-47
2022/10/29 08:43:28;;;;;;;20.50;6.20;;;;;;;;;;4990560;28;20045;-47
2022/10/29 08:45:54;;;;;;;14.95;5.82;;;;;;;;;;4994324;28;20030;-47
2022/10/29 08:48:38;;;;;;;17.85;6.22;;;;;;;;;;4990875;28;20507;-51
2022/10/29 08:51:14;;;;;;;22.80;6.65;;;;;;;;;;4991865;28;20096;-47
2022/10/29 08:53:48;;;;;;;20.75;5.65;;;;;;;;;;4991040;28;20039;-48
2022/10/29 08:56:18;;;;;;;17.17;5.82;;;;;;;;;;4994231;28;20018;-48
2022/10/29 08:58:53;;;;;;;19.63;6.82;;;;;;;;;;5004274;28;20038;-48
2022/10/29 09:01:21;;;;;;;22.55;8.52;;;;;;;;;;4993797;28;20474;-48
2022/10/29 09:03:46;;;;;;;23.02;7.53;;;;;;;;;;4985805;28;20039;-50
2022/10/29 09:06:16;;;;;;;26.92;8.13;;;;;;;;;;4997692;28;20030;-49
2022/10/29 09:08:51;;;;;;;20.75;8.30;;;;;;;;;;4995525;28;20041;-49
2022/10/29 09:11:47;;;;;;;20.45;7.03;;;;;;;;;;4991132;28;20044;-50
2022/10/29 09:14:38;;;;;;;23.60;6.43;;;;;;;;;;4976097;28;20050;-49
2022/10/29 09:17:21;;;;;;;23.95;7.78;;;;;;;;;;4950696;28;20051;-47
2022/10/29 09:20:01;;;;;;;17.92;6.22;;;;;;;;;;4972231;28;20073;-48
2022/10/29 09:22:39;;;;;;;19.08;6.20;;;;;;;;;;4970340;28;20496;-48
2022/10/29 09:25:26;;;;;;;12.23;6.25;;;;;;;;;;4970221;28;20046;-46
2022/10/29 09:28:16;;;;;;;20.52;6.65;;;;;;;;;;4976074;28;20077;-53
2022/10/29 09:31:01;;;;;;;15.70;5.97;;;;;;;;;;4976462;28;20062;-47
2022/10/29 09:33:27;;;;;;;19.58;6.07;;;;;;;;;;4972040;28;20047;-49
2022/10/29 09:35:56;;;;;;;15.23;6.63;;;;;;;;;;4974048;28;20046;-48
2022/10/29 09:38:22;;;;;;;19.80;5.90;;;;;;;;;;4978094;28;20060;-49
2022/10/29 09:40:48;;;;;;;20.77;6.30;;;;;;;;;;4993000;28;20534;-50
2022/10/29 09:43:47;;;;;;;20.30;6.30;;;;;;;;;;4991537;28;20050;-48
2022/10/29 09:46:29;;;;;;;17.38;6.05;;;;;;;;;;4990612;28;20050;-48
2022/10/29 09:49:33;;;;;;;16.35;6.15;;;;;;;;;;4992873;28;20042;-48
2022/10/29 09:52:05;;;;;;;19.90;5.60;;;;;;;;;;4937012;29;20417;-47
2022/10/29 09:54:31;;;;;;;13.07;5.53;;;;;;;;;;4929102;29;20613;-48
2022/10/29 09:56:59;;;;;;;17.55;6.22;;;;;;;;;;4931635;28;20047;-49
2022/10/29 09:59:30;;;;;;;15.90;6.43;;;;;;;;;;4936609;29;20507;-48
2022/10/29 10:01:57;;;;;;;20.95;7.35;;;;;;;;;;4928041;29;20032;-48
2022/10/29 10:04:28;;;;;;;15.35;6.22;;;;;;;;;;4933016;29;20039;-50
2022/10/29 10:07:20;;;;;;;23.23;7.93;;;;;;;;;;4931717;29;20179;-50
2022/10/29 10:09:50;;;;;;;17.45;8.07;;;;;;;;;;4933821;29;20416;-50
2022/10/29 10:12:17;;;;;;;22.27;8.43;;;;;;;;;;4930293;29;20078;-48
2022/10/29 10:14:42;;;;;;;20.75;8.45;;;;;;;;;;4931903;29;20032;-52
2022/10/29 10:17:07;;;;;;;21.25;7.68;;;;;;;;;;4929848;29;20122;-47
2022/10/29 10:19:33;;;;;;;23.65;8.75;;;;;;;;;;4915462;29;20047;-46
2022/10/29 10:22:04;;;;;;;20.98;9.10;;;;;;;;;;4947162;28;20054;-46
2022/10/29 10:24:36;;;;;;;26.38;8.77;;;;;;;;;;4991652;28;20154;-46
2022/10/29 10:27:30;;;;;;;21.20;9.75;;;;;;;;;;4991868;28;20065;-48
2022/10/29 10:30:16;;;;;;;23.73;8.65;;;;;;;;;;4994087;28;20468;-50
2022/10/29 10:32:42;;;;;;;21.25;8.75;;;;;;;;;;4989709;28;20053;-52
2022/10/29 10:35:29;;;;;;;24.48;9.23;;;;;;;;;;4994118;28;20022;-49
2022/10/29 10:37:55;;;;;;;29.23;9.68;;;;;;;;;;4989390;28;20158;-53
2022/10/29 10:40:23;;;;;;;14.98;9.10;;;;;;;;;;4991905;28;20514;-48
2022/10/29 10:42:52;;;;;;;29.33;10.15;;;;;;;;;;4994526;28;20487;-53
2022/10/29 10:45:28;;;;;;;23.58;10.70;;;;;;;;;;4990416;28;20042;-48
2022/10/29 10:47:57;;;;;;;21.58;10.35;;;;;;;;;;4985481;28;20636;-48
2022/10/29 10:50:31;;;;;;;26.85;11.07;;;;;;;;;;4992856;28;20581;-49
2022/10/29 10:52:58;;;;;;;29.80;11.32;;;;;;;;;;4995148;28;20040;-50
2022/10/29 10:55:31;;;;;;;24.95;13.75;;;;;;;;;;4993350;28;20030;-49
2022/10/29 10:58:16;;;;;;;24.77;11.48;;;;;;;;;;4989110;28;20053;-48
2022/10/29 11:00:52;;;;;;;24.50;12.20;;;;;;;;;;4995981;28;20026;-50
2022/10/29 11:03:26;;;;;;;22.75;11.18;;;;;;;;;;4993550;28;20398;-51
2022/10/29 11:06:18;;;;;;;24.23;11.57;;;;;;;;;;4997896;28;20039;-52
2022/10/29 11:09:10;;;;;;;23.30;11.80;;;;;;;;;;4993682;28;20045;-51
2022/10/29 11:11:42;;;;;;;25.70;11.93;;;;;;;;;;4997207;28;20026;-50
2022/10/29 11:14:31;;;;;;;19.98;11.20;;;;;;;;;;4992186;28;20050;-50
2022/10/29 11:17:00;;;;;;;23.27;11.20;;;;;;;;;;4991519;28;20026;-50
2022/10/29 11:19:37;;;;;;;25.58;12.02;;;;;;;;;;4997431;28;20030;-48
2022/10/29 11:22:24;;;;;;;26.70;10.85;;;;;;;;;;4992084;28;20035;-51
2022/10/29 11:25:25;;;;;;;27.63;11.85;;;;;;;;;;4996271;28;20022;-52
2022/10/29 11:27:59;;;;;;;18.55;9.75;;;;;;;;;;4995321;28;20049;-51
2022/10/29 11:30:28;;;;;;;20.65;9.15;;;;;;;;;;4993103;28;20026;-48
2022/10/29 11:33:28;;;;;;;21.27;9.30;;;;;;;;;;4996969;28;20049;-51
2022/10/29 11:35:59;;;;;;;24.13;9.20;;;;;;;;;;4998146;28;20044;-50
2022/10/29 11:38:41;;;;;;;18.90;8.05;;;;;;;;;;4994881;28;20047;-52
2022/10/29 11:41:25;;;;;;;17.50;7.78;;;;;;;;;;4995788;28;20486;-48
2022/10/29 11:43:50;;;;;;;24.08;7.75;;;;;;;;;;4998202;28;20115;-46
2022/10/29 11:46:28;;;;;;;26.38;8.98;;;;;;;;;;4998790;28;20752;-48
2022/10/29 11:49:14;;;;;;;17.88;8.13;;;;;;;;;;4997191;28;20069;-47
2022/10/29 11:52:02;;;;;;;19.10;7.75;;;;;;;;;;4996581;28;20077;-46
2022/10/29 11:54:36;;;;;;;16.15;6.82;;;;;;;;;;4992278;28;20034;-50
2022/10/29 11:57:21;;;;;;;14.57;6.63;;;;;;;;;;4990747;28;20100;-49
2022/10/29 12:00:10;;;;;;;16.92;7.47;;;;;;;;;;4994211;28;20038;-52
2022/10/29 12:02:38;;;;;;;21.35;7.47;;;;;;;;;;4996284;28;20070;-47
2022/10/29 12:05:28;;;;;;;22.27;7.03;;;;;;;;;;4997425;28;20025;-51
2022/10/29 12:08:11;;;;;;;22.30;7.40;;;;;;;;;;4990625;28;20038;-50
2022/10/29 12:10:41;;;;;;;20.17;7.10;;;;;;;;;;4995510;28;20024;-48
2022/10/29 12:13:41;;;;;;;15.88;7.22;;;;;;;;;;4991489;28;20043;-47
2022/10/29 12:16:32;;;;;;;17.20;7.43;;;;;;;;;;4993195;28;20110;-47
2022/10/29 12:19:16;;;;;;;22.20;7.35;;;;;;;;;;4995077;28;20069;-51
2022/10/29 12:22:04;;;;;;;19.02;7.07;;;;;;;;;;4990494;28;20097;-48
2022/10/29 12:24:57;;;;;;;21.80;7.18;;;;;;;;;;4993600;28;20025;-46
2022/10/29 12:27:43;;;;;;;19.48;7.25;;;;;;;;;;4994702;28;20046;-51
2022/10/29 12:30:12;;;;;;;21.77;6.68;;;;;;;;;;4998916;28;20042;-48
2022/10/29 12:32:57;;;;;;;21.13;7.15;;;;;;;;;;4995637;28;20418;-49
2022/10/29 12:35:42;;;;;;;15.43;7.70;;;;;;;;;;4992295;28;20637;-51
2022/10/29 12:38:24;;;;;;;16.45;7.45;;;;;;;;;;4995116;28;20065;-51
2022/10/29 12:40:52;;;;;;;;;;;;;;;;;;4994736;28;20101;-51
2022/10/29 12:43:25;;;;;;;24.38;7.82;;;;;;;;;;4989556;28;20012;-48
2022/10/29 12:46:17;;;;;;;16.85;7.03;;;;;;;;;;4992547;28;20058;-47
2022/10/29 12:49:06;;;;;;;15.68;6.70;;;;;;;;;;4992234;28;20132;-50
2022/10/29 12:51:53;;;;;;;21.88;7.45;;;;;;;;;;4995527;28;20085;-47
2022/10/29 12:54:21;;;;;;;12.68;6.82;;;;;;;;;;4990477;28;20110;-49
2022/10/29 12:56:46;;;;;;;18.88;7.25;;;;;;;;;;4992529;28;20033;-48
2022/10/29 12:59:24;;;;;;;17.58;7.75;;;;;;;;;;4991378;28;20030;-47
2022/10/29 13:01:50;;;;;;;22.48;7.07;;;;;;;;;;4989582;28;20526;-48
2022/10/29 13:04:24;;;;;;;17.50;6.50;;;;;;;;;;4990914;28;20431;-50
2022/10/29 13:07:10;;;;;;;19.85;6.90;;;;;;;;;;4994500;28;20036;-50
2022/10/29 13:09:36;;;;;;;14.27;6.30;;;;;;;;;;4989959;28;20038;-50
2022/10/29 13:12:08;;;;;;;22.45;6.68;;;;;;;;;;4994599;28;20088;-48
2022/10/29 13:14:45;;;;;;;19.48;6.70;;;;;;;;;;4990857;28;20034;-48
2022/10/29 13:17:36;;;;;;;17.55;5.90;;;;;;;;;;4994209;28;20137;-47
2022/10/29 13:20:35;;;;;;;14.95;5.90;;;;;;;;;;4996099;28;20053;-49
2022/10/29 13:23:01;;;;;;;15.65;5.70;;;;;;;;;;4994330;28;20047;-47
2022/10/29 13:25:32;;;;;;;17.60;6.00;;;;;;;;;;4996064;28;20031;-47
2022/10/29 13:28:18;;;;;;;24.48;5.97;;;;;;;;;;4992732;28;20038;-47
2022/10/29 13:30:52;;;;;;;17.52;6.18;;;;;;;;;;4993014;28;20038;-46
2022/10/29 13:33:26;;;;;;;16.45;6.30;;;;;;;;;;4994432;28;20043;-46
2022/10/29 13:35:54;;;;;;;11.52;5.43;;;;;;;;;;4993879;28;20047;-46
2022/10/29 13:39:02;;;;;;;19.52;6.18;;;;;;;;;;4990487;28;20042;-49
2022/10/29 13:41:40;;;;;;;14.68;6.53;;;;;;;;;;4987488;28;20482;-49
2022/10/29 13:44:06;;;;;;;17.80;6.28;;;;;;;;;;4996840;28;20054;-51
2022/10/29 13:46:49;;;;;;;12.43;5.35;;;;;;;;;;4993488;28;20038;-49
2022/10/29 13:49:36;;;;;;;20.65;6.07;;;;;;;;;;4994920;28;20128;-47
2022/10/29 13:52:13;;;;;;;12.13;5.75;;;;;;;;;;4991447;28;20129;-46
2022/10/29 13:54:57;;;;;;;16.80;6.45;;;;;;;;;;4994530;28;20042;-49
2022/10/29 13:57:31;;;;;;;17.73;5.68;;;;;;;;;;4990510;28;20077;-47
2022/10/29 14:00:11;;;;;;;15.60;5.97;;;;;;;;;;4993617;28;20030;-48
2022/10/29 14:02:42;;;;;;;13.73;6.40;;;;;;;;;;4989088;28;20053;-50
2022/10/29 14:05:17;;;;;;;18.63;6.22;;;;;;;;;;4993293;28;20031;-46
2022/10/29 14:08:14;;;;;;;18.13;6.38;;;;;;;;;;4990205;28;20047;-49
2022/10/29 14:10:39;;;;;;;18.35;6.60;;;;;;;;;;4993312;28;20628;-47
2022/10/29 14:13:31;;;;;;;17.83;6.10;;;;;;;;;;4991212;28;20074;-49
2022/10/29 14:16:05;;;;;;;20.23;6.45;;;;;;;;;;4993771;28;20035;-48
2022/10/29 14:18:49;;;;;;;21.27;6.70;;;;;;;;;;4995041;28;20146;-49
2022/10/29 14:21:25;;;;;;;19.02;6.57;;;;;;;;;;4994029;28;20695;-46
2022/10/29 14:23:54;;;;;;;16.77;6.45;;;;;;;;;;4992060;28;20039;-47
2022/10/29 14:26:19;;;;;;;15.63;5.53;;;;;;;;;;4990661;28;20105;-48
2022/10/29 14:28:44;;;;;;;17.45;6.40;;;;;;;;;;4992529;28;21537;-47
2022/10/29 14:31:21;;;;;;;18.65;6.70;;;;;;;;;;4996655;28;20035;-51
2022/10/29 14:34:00;;;;;;;12.55;5.80;;;;;;;;;;4994369;28;20045;-51
2022/10/29 14:36:37;;;;;;;21.63;7.30;;;;;;;;;;4988983;28;20599;-46
2022/10/29 14:39:34;;;;;;;11.70;5.55;;;;;;;;;;4995155;28;20181;-46
2022/10/29 14:42:00;;;;;;;16.40;6.50;;;;;;;;;;4997424;28;20065;-48
2022/10/29 14:44:29;;;;;;;14.13;6.18;;;;;;;;;;4997178;28;20037;-48
2022/10/29 14:47:06;;;;;;;16.63;6.45;;;;;;;;;;4995644;28;20038;-48
2022/10/29 14:49:36;;;;;;;26.38;6.15;;;;;;;;;;4992187;28;20402;-49
2022/10/29 14:52:16;;;;;;;19.83;6.28;;;;;;;;;;4996330;28;20045;-46